createdAt,value
2022-11-29T00:00:29.719Z,13.32
2022-11-29T00:02:56.477Z,16.05
2022-11-29T00:05:23.259Z,17.08
2022-11-29T00:07:49.878Z,15.35
2022-11-29T00:10:16.573Z,18.95
2022-11-29T00:12:43.189Z,16.92
2022-11-29T00:15:09.880Z,17.50
2022-11-29T00:17:36.452Z,14.18
2022-11-29T00:20:03.171Z,15.23
2022-11-29T00:22:30.113Z,13.90
2022-11-29T00:24:56.662Z,12.98
2022-11-29T00:27:23.239Z,16.80
2022-11-29T00:29:49.878Z,16.80
2022-11-29T00:32:16.537Z,11.57
2022-11-29T00:34:43.649Z,15.73
2022-11-29T00:37:10.560Z,14.35
2022-11-29T00:39:37.133Z,14.68
2022-11-29T00:42:03.842Z,13.30
2022-11-29T00:44:30.456Z,13.10
2022-11-29T00:46:57.066Z,12.80
2022-11-29T00:49:23.697Z,13.15
2022-11-29T00:51:50.348Z,11.90
2022-11-29T00:54:17.502Z,11.60
2022-11-29T00:56:44.143Z,14.10
2022-11-29T00:59:10.748Z,14.23
2022-11-29T01:01:37.358Z,14.13
2022-11-29T01:04:04.120Z,15.65
2022-11-29T01:06:30.708Z,12.95
2022-11-29T01:08:57.262Z,12.63
2022-11-29T01:11:25.462Z,11.13
2022-11-29T01:13:54.933Z,12.57
2022-11-29T01:16:21.691Z,11.63
2022-11-29T01:18:48.415Z,10.65
2022-11-29T01:21:16.824Z,10.20
2022-11-29T01:23:43.624Z,14.05
2022-11-29T01:26:12.239Z,15.23
2022-11-29T01:28:39.183Z,12.40
2022-11-29T01:31:08.290Z,12.90
2022-11-29T01:33:35.395Z,9.82
2022-11-29T01:36:02.239Z,9.73
2022-11-29T01:38:28.962Z,12.30
2022-11-29T01:40:58.191Z,10.43
2022-11-29T01:43:24.910Z,12.82
2022-11-29T01:45:51.613Z,12.07
2022-11-29T01:48:18.324Z,17.15
2022-11-29T01:50:44.966Z,13.52
2022-11-29T01:53:11.828Z,10.60
2022-11-29T01:55:39.167Z,9.75
2022-11-29T01:58:06.743Z,8.98
2022-11-29T02:00:33.411Z,10.25
2022-11-29T02:03:16.386Z,11.30
2022-11-29T02:05:51.358Z,11.30
2022-11-29T02:08:25.006Z,12.27
2022-11-29T02:11:31.557Z,12.88
2022-11-29T02:14:24.274Z,11.25
2022-11-29T02:19:56.413Z,10.30
2022-11-29T02:22:34.429Z,12.27
2022-11-29T02:25:10.476Z,9.55
2022-11-29T02:28:16.950Z,11.90
2022-11-29T02:34:00.036Z,11.70
2022-11-29T02:36:51.337Z,11.02
2022-11-29T02:39:57.827Z,10.95
2022-11-29T02:42:54.066Z,12.23
2022-11-29T02:45:54.355Z,11.38
2022-11-29T02:49:00.846Z,9.30
2022-11-29T02:51:59.301Z,12.40
2022-11-29T02:54:33.292Z,9.35
2022-11-29T02:57:21.892Z,11.90
2022-11-29T02:59:59.883Z,13.15
2022-11-29T03:02:48.178Z,10.43
2022-11-29T03:08:35.329Z,9.77
2022-11-29T03:11:07.137Z,17.65
2022-11-29T03:13:58.938Z,10.75
2022-11-29T03:17:05.417Z,11.82
2022-11-29T03:19:55.737Z,12.13
2022-11-29T03:23:02.243Z,12.50
2022-11-29T03:25:33.648Z,15.43
2022-11-29T03:28:05.539Z,11.38
2022-11-29T03:30:33.112Z,8.50
2022-11-29T03:33:22.693Z,9.90
2022-11-29T03:36:13.233Z,10.48
2022-11-29T03:38:42.230Z,10.10
2022-11-29T03:41:31.288Z,11.57
2022-11-29T03:44:03.152Z,12.20
2022-11-29T03:47:09.664Z,11.00
2022-11-29T03:49:41.346Z,12.93
2022-11-29T03:52:21.817Z,9.33
2022-11-29T03:55:11.007Z,9.38
2022-11-29T03:57:46.441Z,8.82
2022-11-29T04:00:13.448Z,9.80
2022-11-29T04:03:19.925Z,9.15
2022-11-29T04:06:26.394Z,14.52
2022-11-29T04:09:19.545Z,8.57
2022-11-29T04:12:13.061Z,9.95
2022-11-29T04:14:51.347Z,8.48
2022-11-29T04:17:57.789Z,8.48
2022-11-29T04:21:04.269Z,10.68
2022-11-29T04:23:59.566Z,8.55
2022-11-29T04:26:54.873Z,9.73
2022-11-29T04:29:45.060Z,7.53
2022-11-29T04:32:45.844Z,8.10
2022-11-29T04:35:38.532Z,8.23
2022-11-29T04:47:11.281Z,9.60
2022-11-29T04:50:03.396Z,9.07
2022-11-29T04:52:40.696Z,8.73
2022-11-29T04:55:41.262Z,7.25
2022-11-29T04:58:16.784Z,6.22
2022-11-29T05:00:51.917Z,7.88
2022-11-29T05:03:32.033Z,8.07
2022-11-29T05:06:10.487Z,8.40
2022-11-29T05:14:56.900Z,7.90
2022-11-29T05:23:33.951Z,6.05
2022-11-29T05:26:05.073Z,5.20
2022-11-29T05:28:47.877Z,7.18
2022-11-29T05:34:17.684Z,7.47
2022-11-29T05:37:21.385Z,7.97
2022-11-29T05:40:27.851Z,7.15
2022-11-29T05:43:07.118Z,5.78
2022-11-29T05:45:58.465Z,7.35
2022-11-29T05:48:29.114Z,10.68
2022-11-29T05:51:35.607Z,5.70
2022-11-29T05:54:18.490Z,8.18
2022-11-29T05:59:19.365Z,5.80
2022-11-29T06:02:27.268Z,4.78
2022-11-29T06:05:13.444Z,6.47
2022-11-29T06:08:10.406Z,7.93
2022-11-29T06:10:40.083Z,7.18
2022-11-29T06:13:33.418Z,6.93
2022-11-29T06:16:17.089Z,7.90
2022-11-29T06:19:11.856Z,7.10
2022-11-29T06:22:00.014Z,8.80
2022-11-29T06:24:52.340Z,6.80
2022-11-29T06:30:13.789Z,6.22
2022-11-29T06:32:47.372Z,6.78
2022-11-29T06:35:36.089Z,8.00
2022-11-29T06:38:14.133Z,9.05
2022-11-29T06:40:40.946Z,8.15
2022-11-29T06:43:07.911Z,6.78
2022-11-29T06:45:34.717Z,5.20
2022-11-29T06:48:02.594Z,7.68
2022-11-29T06:50:53.941Z,5.45
2022-11-29T06:53:51.077Z,6.38
2022-11-29T06:56:25.005Z,7.18
2022-11-29T06:59:00.039Z,6.22
2022-11-29T07:01:47.936Z,6.53
2022-11-29T07:04:54.480Z,5.38
2022-11-29T07:07:22.177Z,6.43
2022-11-29T07:09:51.074Z,5.60
2022-11-29T07:12:18.283Z,5.65
2022-11-29T07:14:45.643Z,6.25
2022-11-29T07:17:39.991Z,7.22
2022-11-29T07:20:17.888Z,5.28
2022-11-29T07:23:09.499Z,6.13
2022-11-29T07:29:11.517Z,4.72
2022-11-29T07:32:07.956Z,4.90
2022-11-29T07:35:05.408Z,4.75
2022-11-29T07:38:11.886Z,6.15
2022-11-29T07:41:05.436Z,5.15
2022-11-29T07:43:41.316Z,4.40
2022-11-29T07:46:07.974Z,8.23
2022-11-29T07:48:34.636Z,4.95
2022-11-29T07:51:13.919Z,4.43
2022-11-29T07:53:42.371Z,8.00
2022-11-29T07:56:10.023Z,4.20
2022-11-29T07:58:36.689Z,5.20
2022-11-29T08:01:03.604Z,5.43
2022-11-29T08:03:30.368Z,5.25
2022-11-29T08:05:56.927Z,6.25
2022-11-29T08:08:23.512Z,7.07
2022-11-29T08:10:50.111Z,5.15
2022-11-29T08:13:19.303Z,4.30
2022-11-29T08:15:46.146Z,6.55
2022-11-29T08:18:13.674Z,5.03
2022-11-29T08:20:41.680Z,5.60
2022-11-29T08:23:09.290Z,4.07
2022-11-29T08:25:35.896Z,7.28
2022-11-29T08:28:03.418Z,5.00
2022-11-29T08:30:30.034Z,5.28
2022-11-29T08:32:56.648Z,6.10
2022-11-29T08:35:23.368Z,5.15
2022-11-29T08:37:50.013Z,4.53
2022-11-29T08:40:16.842Z,5.32
2022-11-29T08:42:43.501Z,7.40
2022-11-29T08:45:10.983Z,5.57
2022-11-29T08:47:38.208Z,4.43
2022-11-29T08:50:10.096Z,6.20
2022-11-29T08:52:58.370Z,4.22
2022-11-29T08:55:27.011Z,5.85
2022-11-29T08:57:54.187Z,5.32
2022-11-29T09:00:21.282Z,5.88
2022-11-29T09:02:48.391Z,4.22
2022-11-29T09:05:15.737Z,3.63
2022-11-29T09:07:42.600Z,7.53
2022-11-29T09:10:10.312Z,6.38
2022-11-29T09:12:37.111Z,3.58
2022-11-29T09:15:05.611Z,4.13
2022-11-29T09:17:32.224Z,9.35
2022-11-29T09:19:58.840Z,4.32
2022-11-29T09:22:25.446Z,7.35
2022-11-29T09:24:52.172Z,7.00
2022-11-29T09:27:18.831Z,8.13
2022-11-29T09:29:45.384Z,8.07
2022-11-29T09:32:11.987Z,4.72
2022-11-29T09:34:38.641Z,5.35
2022-11-29T09:37:05.537Z,8.20
2022-11-29T09:39:32.279Z,4.93
2022-11-29T09:42:27.173Z,7.38
2022-11-29T09:48:06.111Z,5.22
2022-11-29T09:53:36.163Z,6.65
2022-11-29T09:56:26.961Z,6.28
2022-11-29T09:59:17.681Z,4.22
2022-11-29T10:01:47.536Z,5.90
2022-11-29T10:04:19.286Z,4.93
2022-11-29T10:07:10.819Z,5.53
2022-11-29T10:09:43.981Z,6.45
2022-11-29T10:12:17.637Z,4.78
2022-11-29T10:15:09.034Z,4.80
2022-11-29T10:17:40.467Z,3.90
2022-11-29T10:20:15.544Z,5.38
2022-11-29T10:22:53.158Z,4.68
2022-11-29T10:25:24.846Z,4.45
2022-11-29T10:27:51.723Z,5.43
2022-11-29T10:30:18.724Z,5.93
2022-11-29T10:32:46.729Z,5.47
2022-11-29T10:35:14.942Z,5.63
2022-11-29T10:37:41.640Z,3.63
2022-11-29T10:40:13.235Z,8.05
2022-11-29T10:42:54.925Z,4.53
2022-11-29T10:45:40.180Z,4.03
2022-11-29T10:48:11.021Z,7.40
2022-11-29T10:50:37.900Z,5.22
2022-11-29T10:53:07.700Z,3.92
2022-11-29T10:55:59.300Z,5.72
2022-11-29T10:58:28.574Z,7.53
2022-11-29T11:01:01.948Z,5.25
2022-11-29T11:03:35.790Z,4.25
2022-11-29T11:08:45.154Z,5.22
2022-11-29T11:11:12.121Z,4.88
2022-11-29T11:13:39.346Z,4.63
2022-11-29T11:16:21.536Z,4.53
2022-11-29T11:18:48.248Z,4.18
2022-11-29T11:21:18.012Z,4.18
2022-11-29T11:23:56.082Z,4.32
2022-11-29T11:26:22.896Z,3.90
2022-11-29T11:28:59.424Z,4.05
2022-11-29T11:34:34.143Z,3.90
2022-11-29T11:39:46.554Z,5.38
2022-11-29T11:42:36.976Z,4.38
2022-11-29T11:45:30.026Z,4.15
2022-11-29T11:50:45.291Z,3.53
2022-11-29T11:53:29.710Z,3.97
2022-11-29T11:56:01.148Z,2.30
2022-11-29T11:58:37.882Z,8.05
2022-11-29T12:01:25.626Z,2.40
2022-11-29T12:03:57.493Z,3.42
2022-11-29T12:06:40.367Z,3.88
2022-11-29T12:11:47.721Z,2.97
2022-11-29T12:14:24.294Z,2.83
2022-11-29T12:16:50.972Z,6.35
2022-11-29T12:19:21.582Z,3.83
2022-11-29T12:21:52.459Z,5.65
2022-11-29T12:24:26.631Z,5.05
2022-11-29T12:26:58.410Z,3.97
2022-11-29T12:29:27.695Z,6.95
2022-11-29T12:32:04.129Z,6.88
2022-11-29T12:37:55.003Z,10.52
2022-11-29T12:43:38.555Z,4.97
2022-11-29T12:46:15.203Z,3.10
2022-11-29T12:49:11.714Z,7.57
2022-11-29T12:51:47.432Z,2.63
2022-11-29T13:00:15.144Z,11.20
2022-11-29T13:02:53.487Z,7.18
2022-11-29T13:05:29.653Z,3.60
2022-11-29T13:08:36.124Z,3.08
2022-11-29T13:11:23.665Z,8.70
2022-11-29T13:14:13.753Z,3.97
2022-11-29T13:17:03.720Z,4.53
2022-11-29T13:19:51.886Z,5.47
2022-11-29T13:22:23.712Z,5.45
2022-11-29T13:24:53.508Z,4.80
2022-11-29T13:27:24.957Z,2.45
2022-11-29T13:29:51.542Z,4.63
2022-11-29T13:32:40.221Z,2.72
2022-11-29T13:35:17.159Z,2.95
2022-11-29T13:37:54.780Z,3.80
2022-11-29T13:43:30.788Z,3.60
2022-11-29T13:46:19.962Z,5.57
2022-11-29T13:48:50.138Z,9.07
2022-11-29T13:51:27.512Z,9.85
2022-11-29T13:53:56.057Z,7.97
2022-11-29T13:56:45.966Z,7.13
2022-11-29T13:59:17.506Z,11.07
2022-11-29T14:01:50.170Z,10.30
2022-11-29T14:07:04.560Z,12.35
2022-11-29T14:09:44.151Z,13.73
2022-11-29T14:12:36.858Z,8.68
2022-11-29T14:15:25.235Z,8.60
2022-11-29T14:17:55.426Z,7.45
2022-11-29T14:23:13.917Z,14.95
2022-11-29T14:28:39.722Z,17.48
2022-11-29T14:31:07.357Z,14.80
2022-11-29T14:34:08.845Z,24.92
2022-11-29T14:36:49.428Z,15.35
2022-11-29T14:39:47.027Z,18.27
2022-11-29T14:42:18.552Z,18.48
2022-11-29T14:44:49.071Z,13.13
2022-11-29T14:47:37.019Z,16.60
2022-11-29T14:50:07.340Z,14.80
2022-11-29T14:52:38.906Z,40.40
2022-11-29T14:55:17.868Z,17.50
2022-11-29T14:57:52.868Z,17.77
2022-11-29T15:00:24.626Z,16.02
2022-11-29T15:03:12.905Z,21.63
2022-11-29T15:05:43.946Z,18.80
2022-11-29T15:08:20.786Z,25.50
2022-11-29T15:10:50.879Z,19.20
2022-11-29T15:13:23.271Z,18.27
2022-11-29T15:16:14.179Z,24.92
2022-11-29T15:18:59.395Z,16.50
2022-11-29T15:24:17.267Z,23.60
2022-11-29T15:27:00.399Z,23.77
2022-11-29T15:29:27.730Z,19.60
2022-11-29T15:31:58.200Z,21.42
2022-11-29T15:34:40.472Z,17.30
2022-11-29T15:37:09.845Z,21.00
2022-11-29T15:39:37.077Z,15.82
2022-11-29T15:42:11.140Z,18.48
2022-11-29T15:44:37.886Z,18.02
2022-11-29T15:47:25.085Z,19.95
2022-11-29T15:49:52.370Z,19.48
2022-11-29T15:52:28.150Z,22.50
2022-11-29T15:54:59.768Z,23.08
2022-11-29T15:57:42.449Z,21.08
2022-11-29T16:00:15.205Z,23.30
2022-11-29T16:02:47.472Z,26.17
2022-11-29T16:05:22.308Z,19.60
2022-11-29T16:07:51.527Z,27.42
2022-11-29T16:10:20.684Z,18.23
2022-11-29T16:12:55.261Z,20.17
2022-11-29T16:15:25.665Z,21.73
2022-11-29T16:17:52.353Z,25.92
2022-11-29T16:23:11.974Z,24.95
2022-11-29T16:25:59.609Z,26.08
2022-11-29T16:28:29.710Z,26.00
2022-11-29T16:30:56.816Z,23.85
2022-11-29T16:33:23.930Z,25.38
2022-11-29T16:35:51.108Z,27.48
2022-11-29T16:38:21.585Z,26.63
2022-11-29T16:41:14.221Z,29.02
2022-11-29T16:48:58.622Z,26.08
2022-11-29T16:51:32.659Z,27.50
2022-11-29T16:54:22.645Z,32.40
2022-11-29T16:56:50.548Z,36.97
2022-11-29T16:59:26.008Z,40.28
2022-11-29T17:01:54.890Z,39.03
2022-11-29T17:04:24.092Z,53.58
2022-11-29T17:06:52.642Z,38.70
2022-11-29T17:09:22.896Z,45.60
2022-11-29T17:11:49.523Z,40.55
2022-11-29T17:14:16.175Z,40.47
2022-11-29T17:16:42.805Z,39.08
2022-11-29T17:19:12.326Z,43.15
2022-11-29T17:21:38.991Z,40.10
2022-11-29T17:24:05.995Z,44.38
2022-11-29T17:26:32.580Z,39.78
2022-11-29T17:28:59.274Z,42.10
2022-11-29T17:31:25.937Z,43.88
2022-11-29T17:33:52.579Z,42.22
2022-11-29T17:36:19.935Z,40.55
2022-11-29T17:38:47.046Z,42.45
2022-11-29T17:41:16.213Z,43.72
2022-11-29T17:43:42.884Z,42.85
2022-11-29T17:46:13.360Z,45.22
2022-11-29T17:48:40.132Z,39.90
2022-11-29T17:51:28.817Z,40.63
2022-11-29T17:53:54.026Z,42.40
2022-11-29T17:56:22.117Z,40.85
2022-11-29T17:58:57.027Z,40.83
2022-11-29T18:01:25.117Z,41.53
2022-11-29T18:03:53.076Z,41.47
2022-11-29T18:06:21.471Z,42.45
2022-11-29T18:08:50.824Z,44.47
2022-11-29T18:11:20.950Z,40.83
2022-11-29T18:13:47.638Z,38.15
2022-11-29T18:16:15.729Z,39.40
2022-11-29T18:18:42.457Z,40.17
2022-11-29T18:21:09.562Z,42.88
2022-11-29T18:23:37.680Z,40.22
2022-11-29T18:26:05.902Z,43.45
2022-11-29T18:28:34.935Z,46.05
2022-11-29T18:31:08.434Z,41.10
2022-11-29T18:33:35.219Z,39.60
2022-11-29T18:36:05.186Z,40.97
2022-11-29T18:38:32.871Z,42.88
2022-11-29T18:41:00.602Z,42.55
2022-11-29T18:43:27.309Z,43.78
2022-11-29T18:45:54.110Z,41.15
2022-11-29T18:48:20.890Z,40.47
2022-11-29T18:50:47.568Z,38.50
2022-11-29T18:53:14.415Z,34.25
2022-11-29T18:55:40.989Z,37.13
2022-11-29T18:58:08.208Z,39.28
2022-11-29T19:00:35.104Z,38.17
2022-11-29T19:03:01.824Z,36.15
2022-11-29T19:05:28.528Z,36.45
2022-11-29T19:07:55.212Z,35.10
2022-11-29T19:10:21.936Z,33.13
2022-11-29T19:12:48.597Z,33.25
2022-11-29T19:15:15.482Z,35.25
2022-11-29T19:17:43.535Z,36.42
2022-11-29T19:20:11.142Z,36.33
2022-11-29T19:22:37.833Z,40.47
2022-11-29T19:25:04.764Z,38.20
2022-11-29T19:27:31.635Z,34.97
2022-11-29T19:29:58.241Z,31.88
2022-11-29T19:32:24.941Z,32.47
2022-11-29T19:34:52.598Z,31.92
2022-11-29T19:37:19.265Z,34.72
2022-11-29T19:39:46.256Z,34.33
2022-11-29T19:42:13.041Z,32.63
2022-11-29T19:45:14.900Z,34.50
2022-11-29T19:47:26.315Z,40.55
2022-11-29T19:49:54.382Z,32.47
2022-11-29T19:52:23.437Z,35.35
2022-11-29T19:54:50.098Z,36.03
2022-11-29T19:57:16.729Z,38.65
2022-11-29T19:59:43.601Z,37.58
2022-11-29T20:02:11.748Z,30.98
2022-11-29T20:04:38.421Z,38.28
2022-11-29T20:07:05.040Z,34.60
2022-11-29T20:09:31.629Z,37.20
2022-11-29T20:11:58.288Z,34.33
2022-11-29T20:14:24.877Z,34.35
2022-11-29T20:16:51.476Z,33.97
2022-11-29T20:19:18.118Z,32.58
2022-11-29T20:21:47.565Z,33.67
2022-11-29T20:24:14.870Z,36.72
2022-11-29T20:26:43.183Z,34.17
2022-11-29T20:29:10.021Z,33.70
2022-11-29T20:31:37.281Z,41.47
2022-11-29T20:34:04.143Z,35.70
2022-11-29T20:37:09.198Z,36.58
2022-11-29T20:40:09.457Z,30.80
2022-11-29T20:43:05.861Z,33.58
2022-11-29T20:45:32.771Z,34.85
2022-11-29T20:48:21.651Z,30.88
2022-11-29T20:50:55.772Z,34.72
2022-11-29T20:53:30.915Z,36.38
2022-11-29T20:55:57.637Z,35.95
2022-11-29T20:58:26.245Z,38.10
2022-11-29T21:00:54.398Z,37.58
2022-11-29T21:03:21.116Z,38.97
2022-11-29T21:05:47.815Z,32.35
2022-11-29T21:08:14.917Z,39.38
2022-11-29T21:10:41.475Z,33.90
2022-11-29T21:13:10.294Z,38.00
2022-11-29T21:15:37.133Z,38.10
2022-11-29T21:18:04.156Z,41.42
2022-11-29T21:20:31.007Z,37.60
2022-11-29T21:23:18.822Z,39.95
2022-11-29T21:25:57.349Z,36.72
2022-11-29T21:28:27.897Z,31.65
2022-11-29T21:30:54.735Z,34.03
2022-11-29T21:33:21.558Z,35.05
2022-11-29T21:35:49.185Z,34.83
2022-11-29T21:38:17.260Z,29.92
2022-11-29T21:40:43.863Z,31.17
2022-11-29T21:43:10.489Z,31.70
2022-11-29T21:45:37.282Z,28.33
2022-11-29T21:48:04.054Z,30.85
2022-11-29T21:50:30.710Z,35.45
2022-11-29T21:52:57.359Z,31.90
2022-11-29T21:55:31.608Z,32.33
2022-11-29T21:57:58.810Z,33.90
2022-11-29T22:00:25.841Z,35.28
2022-11-29T22:02:52.464Z,32.28
2022-11-29T22:05:19.451Z,35.38
2022-11-29T22:07:46.411Z,36.15
2022-11-29T22:10:13.755Z,30.42
2022-11-29T22:12:49.309Z,32.53
2022-11-29T22:15:24.889Z,36.38
2022-11-29T22:17:53.178Z,36.25
2022-11-29T22:20:20.176Z,35.95
2022-11-29T22:22:48.553Z,39.38
2022-11-29T22:25:17.965Z,39.25
2022-11-29T22:27:44.794Z,36.28
2022-11-29T22:30:12.281Z,41.83
2022-11-29T22:32:39.351Z,36.58
2022-11-29T22:35:15.185Z,32.67
2022-11-29T22:37:42.398Z,42.55
2022-11-29T22:40:09.843Z,38.47
2022-11-29T22:42:40.941Z,42.90
2022-11-29T22:45:08.271Z,46.35
2022-11-29T22:47:35.248Z,40.55
2022-11-29T22:50:02.833Z,47.75
2022-11-29T22:52:37.058Z,42.90
2022-11-29T22:55:09.869Z,47.33
2022-11-29T22:57:41.859Z,44.20
2022-11-29T23:00:13.922Z,42.75
2022-11-29T23:02:43.535Z,40.30
2022-11-29T23:05:10.277Z,38.28
2022-11-29T23:07:39.537Z,44.80
2022-11-29T23:10:07.126Z,45.35
2022-11-29T23:12:34.100Z,38.78
2022-11-29T23:15:04.982Z,37.95
2022-11-29T23:17:34.993Z,33.75
2022-11-29T23:20:01.800Z,41.38
2022-11-29T23:22:28.560Z,42.03
2022-11-29T23:24:55.371Z,38.30
2022-11-29T23:27:22.167Z,40.13
2022-11-29T23:29:49.194Z,45.58
2022-11-29T23:32:27.763Z,44.40
2022-11-29T23:35:03.764Z,45.83
2022-11-29T23:37:36.944Z,44.20
2022-11-29T23:40:26.568Z,38.67
2022-11-29T23:43:01.468Z,34.45
2022-11-29T23:45:38.476Z,32.63
2022-11-29T23:48:05.839Z,37.40
2022-11-29T23:50:32.751Z,29.23
2022-11-29T23:52:59.473Z,33.85
2022-11-29T23:55:26.083Z,34.50
2022-11-29T23:57:52.878Z,30.02
